sensor_id;sensor_type;location;lat;lon;timestamp;P1;durP1;ratioP1;P2;durP2;ratioP2
70683;SDS011;58263;48.146;11.440;2023-03-31T00:01:10;7.78;;;3.72;;
70683;SDS011;58263;48.146;11.440;2023-03-31T00:03:36;10.32;;;3.88;;
70683;SDS011;58263;48.146;11.440;2023-03-31T00:06:08;6.45;;;3.65;;
70683;SDS011;58263;48.146;11.440;2023-03-31T00:08:35;7.40;;;3.95;;
70683;SDS011;58263;48.146;11.440;2023-03-31T00:11:05;5.50;;;3.07;;
70683;SDS011;58263;48.146;11.440;2023-03-31T00:13:32;9.68;;;4.10;;
70683;SDS011;58263;48.146;11.440;2023-03-31T00:15:58;7.22;;;4.40;;
70683;SDS011;58263;48.146;11.440;2023-03-31T00:18:25;7.25;;;3.90;;
70683;SDS011;58263;48.146;11.440;2023-03-31T00:20:52;9.82;;;3.88;;
70683;SDS011;58263;48.146;11.440;2023-03-31T00:23:18;7.88;;;3.95;;
70683;SDS011;58263;48.146;11.440;2023-03-31T00:25:55;7.90;;;3.97;;
70683;SDS011;58263;48.146;11.440;2023-03-31T00:28:20;8.48;;;4.72;;
70683;SDS011;58263;48.146;11.440;2023-03-31T00:30:46;9.65;;;4.32;;
70683;SDS011;58263;48.146;11.440;2023-03-31T00:33:12;10.55;;;3.80;;
70683;SDS011;58263;48.146;11.440;2023-03-31T00:35:37;6.95;;;4.18;;
70683;SDS011;58263;48.146;11.440;2023-03-31T00:38:04;7.38;;;4.35;;
70683;SDS011;58263;48.146;11.440;2023-03-31T00:40:30;8.10;;;4.18;;
70683;SDS011;58263;48.146;11.440;2023-03-31T00:42:55;11.85;;;4.10;;
70683;SDS011;58263;48.146;11.440;2023-03-31T00:45:22;10.63;;;4.20;;
70683;SDS011;58263;48.146;11.440;2023-03-31T00:47:52;9.95;;;5.10;;
70683;SDS011;58263;48.146;11.440;2023-03-31T00:50:24;7.05;;;4.40;;
70683;SDS011;58263;48.146;11.440;2023-03-31T00:53:11;8.73;;;3.85;;
70683;SDS011;58263;48.146;11.440;2023-03-31T00:55:45;10.00;;;4.32;;
70683;SDS011;58263;48.146;11.440;2023-03-31T00:58:15;8.25;;;4.30;;
70683;SDS011;58263;48.146;11.440;2023-03-31T01:00:44;7.90;;;4.45;;
70683;SDS011;58263;48.146;11.440;2023-03-31T01:03:12;7.38;;;3.97;;
70683;SDS011;58263;48.146;11.440;2023-03-31T01:08:18;5.50;;;3.72;;
70683;SDS011;58263;48.146;11.440;2023-03-31T01:10:49;8.57;;;4.50;;
70683;SDS011;58263;48.146;11.440;2023-03-31T01:13:17;8.45;;;3.85;;
70683;SDS011;58263;48.146;11.440;2023-03-31T01:15:44;8.57;;;3.75;;
70683;SDS011;58263;48.146;11.440;2023-03-31T01:18:09;10.55;;;5.32;;
70683;SDS011;58263;48.146;11.440;2023-03-31T01:30:08;5.15;;;3.30;;
70683;SDS011;58263;48.146;11.440;2023-03-31T01:40:50;7.18;;;3.70;;
70683;SDS011;58263;48.146;11.440;2023-03-31T01:46:26;8.50;;;3.97;;
70683;SDS011;58263;48.146;11.440;2023-03-31T01:54:21;7.82;;;3.75;;
70683;SDS011;58263;48.146;11.440;2023-03-31T01:56:51;7.10;;;3.95;;
70683;SDS011;58263;48.146;11.440;2023-03-31T01:59:33;9.88;;;3.67;;
70683;SDS011;58263;48.146;11.440;2023-03-31T02:02:15;6.32;;;3.70;;
70683;SDS011;58263;48.146;11.440;2023-03-31T02:04:51;8.10;;;3.50;;
70683;SDS011;58263;48.146;11.440;2023-03-31T02:07:23;7.00;;;3.42;;
70683;SDS011;58263;48.146;11.440;2023-03-31T02:09:56;5.72;;;3.92;;
70683;SDS011;58263;48.146;11.440;2023-03-31T02:12:27;8.70;;;4.53;;
70683;SDS011;58263;48.146;11.440;2023-03-31T02:14:55;4.63;;;3.80;;
70683;SDS011;58263;48.146;11.440;2023-03-31T02:17:23;6.72;;;3.58;;
70683;SDS011;58263;48.146;11.440;2023-03-31T02:19:57;5.55;;;3.97;;
70683;SDS011;58263;48.146;11.440;2023-03-31T02:22:30;7.70;;;3.38;;
70683;SDS011;58263;48.146;11.440;2023-03-31T02:24:59;6.93;;;3.65;;
70683;SDS011;58263;48.146;11.440;2023-03-31T02:27:27;6.13;;;4.10;;
70683;SDS011;58263;48.146;11.440;2023-03-31T02:29:57;7.38;;;3.95;;
70683;SDS011;58263;48.146;11.440;2023-03-31T02:32:42;7.50;;;3.60;;
70683;SDS011;58263;48.146;11.440;2023-03-31T02:35:19;5.55;;;3.60;;
70683;SDS011;58263;48.146;11.440;2023-03-31T02:37:46;7.57;;;3.90;;
70683;SDS011;58263;48.146;11.440;2023-03-31T02:40:18;6.80;;;3.67;;
70683;SDS011;58263;48.146;11.440;2023-03-31T02:48:14;6.57;;;4.25;;
70683;SDS011;58263;48.146;11.440;2023-03-31T02:50:52;6.57;;;4.10;;
70683;SDS011;58263;48.146;11.440;2023-03-31T02:58:44;6.20;;;3.35;;
70683;SDS011;58263;48.146;11.440;2023-03-31T03:01:20;8.52;;;5.00;;
70683;SDS011;58263;48.146;11.440;2023-03-31T03:06:50;6.97;;;4.03;;
70683;SDS011;58263;48.146;11.440;2023-03-31T03:09:33;7.63;;;3.35;;
70683;SDS011;58263;48.146;11.440;2023-03-31T03:12:08;9.73;;;3.95;;
70683;SDS011;58263;48.146;11.440;2023-03-31T03:14:51;7.57;;;3.75;;
70683;SDS011;58263;48.146;11.440;2023-03-31T03:17:38;7.85;;;3.80;;
70683;SDS011;58263;48.146;11.440;2023-03-31T03:20:07;9.73;;;4.32;;
70683;SDS011;58263;48.146;11.440;2023-03-31T03:22:35;7.10;;;4.43;;
70683;SDS011;58263;48.146;11.440;2023-03-31T03:25:02;9.18;;;3.90;;
70683;SDS011;58263;48.146;11.440;2023-03-31T03:27:33;10.52;;;3.88;;
70683;SDS011;58263;48.146;11.440;2023-03-31T03:29:59;7.03;;;3.50;;
70683;SDS011;58263;48.146;11.440;2023-03-31T03:32:28;7.10;;;3.53;;
70683;SDS011;58263;48.146;11.440;2023-03-31T03:34:54;6.50;;;3.92;;
70683;SDS011;58263;48.146;11.440;2023-03-31T03:37:19;9.15;;;4.13;;
70683;SDS011;58263;48.146;11.440;2023-03-31T03:39:45;8.40;;;3.90;;
70683;SDS011;58263;48.146;11.440;2023-03-31T03:42:10;5.75;;;3.40;;
70683;SDS011;58263;48.146;11.440;2023-03-31T03:44:36;5.85;;;4.00;;
70683;SDS011;58263;48.146;11.440;2023-03-31T03:47:01;10.88;;;3.60;;
70683;SDS011;58263;48.146;11.440;2023-03-31T03:49:26;7.47;;;3.40;;
70683;SDS011;58263;48.146;11.440;2023-03-31T03:51:52;7.60;;;3.40;;
70683;SDS011;58263;48.146;11.440;2023-03-31T03:54:17;8.30;;;3.60;;
70683;SDS011;58263;48.146;11.440;2023-03-31T03:56:42;7.10;;;3.57;;
70683;SDS011;58263;48.146;11.440;2023-03-31T03:59:09;6.30;;;3.50;;
70683;SDS011;58263;48.146;11.440;2023-03-31T04:01:35;8.02;;;3.65;;
70683;SDS011;58263;48.146;11.440;2023-03-31T04:04:01;6.72;;;3.63;;
70683;SDS011;58263;48.146;11.440;2023-03-31T04:06:26;25.25;;;12.13;;
70683;SDS011;58263;48.146;11.440;2023-03-31T04:08:51;12.70;;;6.00;;
70683;SDS011;58263;48.146;11.440;2023-03-31T04:11:17;10.97;;;6.13;;
70683;SDS011;58263;48.146;11.440;2023-03-31T04:13:43;16.67;;;8.07;;
70683;SDS011;58263;48.146;11.440;2023-03-31T04:16:10;8.23;;;4.40;;
70683;SDS011;58263;48.146;11.440;2023-03-31T04:18:36;8.35;;;4.03;;
70683;SDS011;58263;48.146;11.440;2023-03-31T04:21:06;9.77;;;4.13;;
70683;SDS011;58263;48.146;11.440;2023-03-31T04:23:36;8.10;;;4.30;;
70683;SDS011;58263;48.146;11.440;2023-03-31T04:26:06;10.88;;;4.22;;
70683;SDS011;58263;48.146;11.440;2023-03-31T04:28:33;7.03;;;3.63;;
70683;SDS011;58263;48.146;11.440;2023-03-31T04:31:00;8.30;;;4.03;;
70683;SDS011;58263;48.146;11.440;2023-03-31T04:33:26;7.85;;;4.10;;
70683;SDS011;58263;48.146;11.440;2023-03-31T04:35:52;8.02;;;5.13;;
70683;SDS011;58263;48.146;11.440;2023-03-31T04:38:18;10.77;;;4.37;;
70683;SDS011;58263;48.146;11.440;2023-03-31T04:40:51;8.30;;;4.30;;
70683;SDS011;58263;48.146;11.440;2023-03-31T04:43:17;6.32;;;4.00;;
70683;SDS011;58263;48.146;11.440;2023-03-31T04:45:44;10.05;;;4.60;;
70683;SDS011;58263;48.146;11.440;2023-03-31T04:48:10;6.47;;;4.50;;
70683;SDS011;58263;48.146;11.440;2023-03-31T04:50:35;9.63;;;4.70;;
70683;SDS011;58263;48.146;11.440;2023-03-31T04:53:02;7.95;;;4.40;;
70683;SDS011;58263;48.146;11.440;2023-03-31T04:55:27;8.48;;;4.30;;
70683;SDS011;58263;48.146;11.440;2023-03-31T04:57:53;6.55;;;4.47;;
70683;SDS011;58263;48.146;11.440;2023-03-31T05:00:19;12.40;;;5.07;;
70683;SDS011;58263;48.146;11.440;2023-03-31T05:02:44;9.98;;;4.57;;
70683;SDS011;58263;48.146;11.440;2023-03-31T05:05:10;6.77;;;4.30;;
70683;SDS011;58263;48.146;11.440;2023-03-31T05:07:36;7.07;;;3.80;;
70683;SDS011;58263;48.146;11.440;2023-03-31T05:10:01;7.82;;;4.45;;
70683;SDS011;58263;48.146;11.440;2023-03-31T05:12:27;9.50;;;4.88;;
70683;SDS011;58263;48.146;11.440;2023-03-31T05:14:52;8.03;;;4.27;;
70683;SDS011;58263;48.146;11.440;2023-03-31T05:17:17;5.43;;;3.80;;
70683;SDS011;58263;48.146;11.440;2023-03-31T05:19:43;7.83;;;4.30;;
70683;SDS011;58263;48.146;11.440;2023-03-31T05:22:09;9.35;;;4.50;;
70683;SDS011;58263;48.146;11.440;2023-03-31T05:24:34;9.23;;;4.47;;
70683;SDS011;58263;48.146;11.440;2023-03-31T05:27:00;9.85;;;5.03;;
70683;SDS011;58263;48.146;11.440;2023-03-31T05:29:25;6.90;;;4.43;;
70683;SDS011;58263;48.146;11.440;2023-03-31T05:31:51;10.25;;;4.65;;
70683;SDS011;58263;48.146;11.440;2023-03-31T05:34:18;7.65;;;4.40;;
70683;SDS011;58263;48.146;11.440;2023-03-31T05:36:43;10.25;;;4.97;;
70683;SDS011;58263;48.146;11.440;2023-03-31T05:39:11;14.23;;;6.05;;
70683;SDS011;58263;48.146;11.440;2023-03-31T05:41:37;9.95;;;4.72;;
70683;SDS011;58263;48.146;11.440;2023-03-31T05:44:02;8.20;;;4.43;;
70683;SDS011;58263;48.146;11.440;2023-03-31T05:46:28;8.77;;;4.53;;
70683;SDS011;58263;48.146;11.440;2023-03-31T05:48:53;7.63;;;4.30;;
70683;SDS011;58263;48.146;11.440;2023-03-31T05:51:19;10.40;;;4.93;;
70683;SDS011;58263;48.146;11.440;2023-03-31T05:53:44;12.52;;;4.90;;
70683;SDS011;58263;48.146;11.440;2023-03-31T05:56:10;7.55;;;4.47;;
70683;SDS011;58263;48.146;11.440;2023-03-31T05:58:36;10.30;;;4.68;;
70683;SDS011;58263;48.146;11.440;2023-03-31T06:01:06;9.00;;;4.90;;
70683;SDS011;58263;48.146;11.440;2023-03-31T06:03:34;8.02;;;4.40;;
70683;SDS011;58263;48.146;11.440;2023-03-31T06:06:02;7.93;;;4.13;;
70683;SDS011;58263;48.146;11.440;2023-03-31T06:08:29;8.02;;;4.60;;
70683;SDS011;58263;48.146;11.440;2023-03-31T06:10:54;7.43;;;4.45;;
70683;SDS011;58263;48.146;11.440;2023-03-31T06:13:20;11.23;;;4.90;;
70683;SDS011;58263;48.146;11.440;2023-03-31T06:15:55;8.43;;;4.85;;
70683;SDS011;58263;48.146;11.440;2023-03-31T06:18:21;8.40;;;4.43;;
70683;SDS011;58263;48.146;11.440;2023-03-31T06:20:47;9.88;;;4.20;;
70683;SDS011;58263;48.146;11.440;2023-03-31T06:23:13;8.68;;;4.70;;
70683;SDS011;58263;48.146;11.440;2023-03-31T06:25:38;11.43;;;4.00;;
70683;SDS011;58263;48.146;11.440;2023-03-31T06:28:03;8.57;;;5.17;;
70683;SDS011;58263;48.146;11.440;2023-03-31T06:30:30;10.48;;;4.38;;
70683;SDS011;58263;48.146;11.440;2023-03-31T06:32:55;12.95;;;4.65;;
70683;SDS011;58263;48.146;11.440;2023-03-31T06:35:21;13.33;;;6.50;;
70683;SDS011;58263;48.146;11.440;2023-03-31T06:37:46;6.93;;;3.97;;
70683;SDS011;58263;48.146;11.440;2023-03-31T06:40:11;7.20;;;4.10;;
70683;SDS011;58263;48.146;11.440;2023-03-31T06:42:37;10.70;;;4.47;;
70683;SDS011;58263;48.146;11.440;2023-03-31T06:45:02;6.75;;;4.03;;
70683;SDS011;58263;48.146;11.440;2023-03-31T06:47:28;7.45;;;3.90;;
70683;SDS011;58263;48.146;11.440;2023-03-31T06:49:53;7.37;;;3.93;;
70683;SDS011;58263;48.146;11.440;2023-03-31T06:52:18;7.03;;;4.53;;
70683;SDS011;58263;48.146;11.440;2023-03-31T06:54:43;11.23;;;3.70;;
70683;SDS011;58263;48.146;11.440;2023-03-31T06:57:09;6.68;;;3.90;;
70683;SDS011;58263;48.146;11.440;2023-03-31T06:59:35;12.95;;;6.57;;
70683;SDS011;58263;48.146;11.440;2023-03-31T07:02:00;10.02;;;5.53;;
70683;SDS011;58263;48.146;11.440;2023-03-31T07:04:26;8.82;;;4.80;;
70683;SDS011;58263;48.146;11.440;2023-03-31T07:06:51;5.72;;;4.18;;
70683;SDS011;58263;48.146;11.440;2023-03-31T07:09:16;6.87;;;4.17;;
70683;SDS011;58263;48.146;11.440;2023-03-31T07:11:42;8.15;;;4.05;;
70683;SDS011;58263;48.146;11.440;2023-03-31T07:14:08;6.95;;;4.00;;
70683;SDS011;58263;48.146;11.440;2023-03-31T07:16:33;7.93;;;3.95;;
70683;SDS011;58263;48.146;11.440;2023-03-31T07:19:00;7.63;;;4.68;;
70683;SDS011;58263;48.146;11.440;2023-03-31T07:21:27;6.25;;;3.92;;
70683;SDS011;58263;48.146;11.440;2023-03-31T07:23:52;9.90;;;4.07;;
70683;SDS011;58263;48.146;11.440;2023-03-31T07:26:18;11.23;;;4.50;;
70683;SDS011;58263;48.146;11.440;2023-03-31T07:28:43;12.30;;;4.60;;
70683;SDS011;58263;48.146;11.440;2023-03-31T07:31:09;6.00;;;3.67;;
70683;SDS011;58263;48.146;11.440;2023-03-31T07:33:36;6.70;;;3.95;;
70683;SDS011;58263;48.146;11.440;2023-03-31T07:36:03;6.35;;;3.75;;
70683;SDS011;58263;48.146;11.440;2023-03-31T07:38:30;9.57;;;4.50;;
70683;SDS011;58263;48.146;11.440;2023-03-31T07:40:55;8.32;;;4.60;;
70683;SDS011;58263;48.146;11.440;2023-03-31T07:43:20;7.40;;;4.03;;
70683;SDS011;58263;48.146;11.440;2023-03-31T07:45:46;7.70;;;4.23;;
70683;SDS011;58263;48.146;11.440;2023-03-31T07:48:11;7.40;;;4.33;;
70683;SDS011;58263;48.146;11.440;2023-03-31T07:50:37;9.38;;;4.50;;
70683;SDS011;58263;48.146;11.440;2023-03-31T07:53:02;12.70;;;5.32;;
70683;SDS011;58263;48.146;11.440;2023-03-31T07:55:28;10.40;;;5.30;;
70683;SDS011;58263;48.146;11.440;2023-03-31T07:57:53;12.32;;;4.50;;
70683;SDS011;58263;48.146;11.440;2023-03-31T08:00:18;7.97;;;4.13;;
70683;SDS011;58263;48.146;11.440;2023-03-31T08:02:44;7.30;;;4.20;;
70683;SDS011;58263;48.146;11.440;2023-03-31T08:05:10;9.63;;;4.65;;
70683;SDS011;58263;48.146;11.440;2023-03-31T08:07:37;8.02;;;4.00;;
70683;SDS011;58263;48.146;11.440;2023-03-31T08:10:06;6.63;;;4.05;;
70683;SDS011;58263;48.146;11.440;2023-03-31T08:14:59;9.63;;;4.50;;
70683;SDS011;58263;48.146;11.440;2023-03-31T08:17:24;7.97;;;4.97;;
70683;SDS011;58263;48.146;11.440;2023-03-31T08:19:49;6.82;;;4.40;;
70683;SDS011;58263;48.146;11.440;2023-03-31T08:22:16;8.32;;;4.53;;
70683;SDS011;58263;48.146;11.440;2023-03-31T08:24:41;8.50;;;4.47;;
70683;SDS011;58263;48.146;11.440;2023-03-31T08:27:07;6.50;;;4.23;;
70683;SDS011;58263;48.146;11.440;2023-03-31T08:29:32;9.07;;;4.53;;
70683;SDS011;58263;48.146;11.440;2023-03-31T08:31:57;8.77;;;4.00;;
70683;SDS011;58263;48.146;11.440;2023-03-31T08:34:23;7.20;;;3.67;;
70683;SDS011;58263;48.146;11.440;2023-03-31T08:36:48;6.97;;;3.88;;
70683;SDS011;58263;48.146;11.440;2023-03-31T08:39:14;31.48;;;15.48;;
70683;SDS011;58263;48.146;11.440;2023-03-31T08:41:46;6.15;;;4.18;;
70683;SDS011;58263;48.146;11.440;2023-03-31T08:46:59;6.15;;;3.50;;
70683;SDS011;58263;48.146;11.440;2023-03-31T08:49:28;6.57;;;3.40;;
70683;SDS011;58263;48.146;11.440;2023-03-31T08:52:01;5.05;;;2.78;;
70683;SDS011;58263;48.146;11.440;2023-03-31T08:54:32;6.13;;;3.95;;
70683;SDS011;58263;48.146;11.440;2023-03-31T08:57:03;4.57;;;3.00;;
70683;SDS011;58263;48.146;11.440;2023-03-31T08:59:36;4.05;;;2.92;;
70683;SDS011;58263;48.146;11.440;2023-03-31T09:05:22;5.90;;;3.47;;
70683;SDS011;58263;48.146;11.440;2023-03-31T09:11:10;4.03;;;2.50;;
70683;SDS011;58263;48.146;11.440;2023-03-31T09:19:17;4.57;;;2.83;;
70683;SDS011;58263;48.146;11.440;2023-03-31T09:21:49;4.32;;;2.75;;
70683;SDS011;58263;48.146;11.440;2023-03-31T09:24:19;3.90;;;2.83;;
70683;SDS011;58263;48.146;11.440;2023-03-31T09:32:15;11.35;;;5.85;;
70683;SDS011;58263;48.146;11.440;2023-03-31T09:34:41;7.65;;;4.75;;
70683;SDS011;58263;48.146;11.440;2023-03-31T09:37:09;2.83;;;2.30;;
70683;SDS011;58263;48.146;11.440;2023-03-31T09:39:35;3.65;;;2.13;;
70683;SDS011;58263;48.146;11.440;2023-03-31T09:42:02;4.88;;;2.00;;
70683;SDS011;58263;48.146;11.440;2023-03-31T09:44:38;2.95;;;2.08;;
70683;SDS011;58263;48.146;11.440;2023-03-31T09:47:13;2.72;;;1.80;;
70683;SDS011;58263;48.146;11.440;2023-03-31T09:49:45;3.00;;;1.80;;
70683;SDS011;58263;48.146;11.440;2023-03-31T09:52:13;1.85;;;1.40;;
70683;SDS011;58263;48.146;11.440;2023-03-31T09:54:50;3.72;;;1.90;;
70683;SDS011;58263;48.146;11.440;2023-03-31T09:57:32;3.30;;;2.10;;
70683;SDS011;58263;48.146;11.440;2023-03-31T10:05:00;14.98;;;6.85;;
70683;SDS011;58263;48.146;11.440;2023-03-31T10:07:26;2.00;;;1.73;;
70683;SDS011;58263;48.146;11.440;2023-03-31T10:09:53;4.85;;;3.00;;
70683;SDS011;58263;48.146;11.440;2023-03-31T10:12:19;8.65;;;2.08;;
70683;SDS011;58263;48.146;11.440;2023-03-31T10:14:49;2.28;;;1.83;;
70683;SDS011;58263;48.146;11.440;2023-03-31T10:27:23;3.13;;;2.13;;
70683;SDS011;58263;48.146;11.440;2023-03-31T10:29:57;2.85;;;1.85;;
70683;SDS011;58263;48.146;11.440;2023-03-31T10:32:31;3.50;;;2.10;;
70683;SDS011;58263;48.146;11.440;2023-03-31T10:35:03;3.38;;;2.25;;
70683;SDS011;58263;48.146;11.440;2023-03-31T10:37:30;11.80;;;6.22;;
70683;SDS011;58263;48.146;11.440;2023-03-31T10:42:24;5.28;;;2.03;;
70683;SDS011;58263;48.146;11.440;2023-03-31T10:45:09;2.75;;;2.05;;
70683;SDS011;58263;48.146;11.440;2023-03-31T10:47:39;4.75;;;2.60;;
70683;SDS011;58263;48.146;11.440;2023-03-31T10:50:14;3.92;;;2.40;;
70683;SDS011;58263;48.146;11.440;2023-03-31T10:52:44;5.13;;;2.45;;
70683;SDS011;58263;48.146;11.440;2023-03-31T10:55:11;3.90;;;2.10;;
70683;SDS011;58263;48.146;11.440;2023-03-31T10:57:46;3.70;;;2.15;;
70683;SDS011;58263;48.146;11.440;2023-03-31T11:00:37;2.95;;;2.20;;
70683;SDS011;58263;48.146;11.440;2023-03-31T11:03:22;3.30;;;2.50;;
70683;SDS011;58263;48.146;11.440;2023-03-31T11:06:15;4.18;;;2.47;;
70683;SDS011;58263;48.146;11.440;2023-03-31T11:09:00;3.40;;;2.53;;
70683;SDS011;58263;48.146;11.440;2023-03-31T11:22:50;2.38;;;1.60;;
70683;SDS011;58263;48.146;11.440;2023-03-31T11:25:33;2.08;;;1.23;;
70683;SDS011;58263;48.146;11.440;2023-03-31T11:30:53;1.33;;;0.60;;
70683;SDS011;58263;48.146;11.440;2023-03-31T11:36:13;3.97;;;1.15;;
70683;SDS011;58263;48.146;11.440;2023-03-31T11:46:31;1.55;;;1.40;;
70683;SDS011;58263;48.146;11.440;2023-03-31T11:54:28;2.90;;;1.20;;
70683;SDS011;58263;48.146;11.440;2023-03-31T11:57:01;1.67;;;1.42;;
70683;SDS011;58263;48.146;11.440;2023-03-31T11:59:33;2.13;;;1.10;;
70683;SDS011;58263;48.146;11.440;2023-03-31T12:02:04;5.32;;;1.63;;
70683;SDS011;58263;48.146;11.440;2023-03-31T12:04:51;3.85;;;1.42;;
70683;SDS011;58263;48.146;11.440;2023-03-31T12:12:41;1.73;;;1.27;;
70683;SDS011;58263;48.146;11.440;2023-03-31T12:17:42;2.80;;;1.38;;
70683;SDS011;58263;48.146;11.440;2023-03-31T12:23:02;4.70;;;3.20;;
70683;SDS011;58263;48.146;11.440;2023-03-31T12:25:40;1.75;;;1.55;;
70683;SDS011;58263;48.146;11.440;2023-03-31T12:28:23;1.45;;;1.20;;
70683;SDS011;58263;48.146;11.440;2023-03-31T12:30:51;3.03;;;1.73;;
70683;SDS011;58263;48.146;11.440;2023-03-31T12:33:23;2.95;;;1.00;;
70683;SDS011;58263;48.146;11.440;2023-03-31T12:36:03;12.27;;;5.88;;
70683;SDS011;58263;48.146;11.440;2023-03-31T12:41:23;2.17;;;1.35;;
70683;SDS011;58263;48.146;11.440;2023-03-31T12:52:19;3.40;;;1.52;;
70683;SDS011;58263;48.146;11.440;2023-03-31T12:55:08;5.53;;;2.20;;
70683;SDS011;58263;48.146;11.440;2023-03-31T12:57:45;3.15;;;2.17;;
70683;SDS011;58263;48.146;11.440;2023-03-31T13:00:24;4.75;;;1.90;;
70683;SDS011;58263;48.146;11.440;2023-03-31T13:03:33;3.00;;;1.80;;
70683;SDS011;58263;48.146;11.440;2023-03-31T13:05:54;3.03;;;1.60;;
70683;SDS011;58263;48.146;11.440;2023-03-31T13:08:47;1.98;;;1.55;;
70683;SDS011;58263;48.146;11.440;2023-03-31T13:14:19;6.72;;;1.13;;
70683;SDS011;58263;48.146;11.440;2023-03-31T13:16:47;5.68;;;1.08;;
70683;SDS011;58263;48.146;11.440;2023-03-31T13:19:26;3.38;;;1.05;;
70683;SDS011;58263;48.146;11.440;2023-03-31T13:22:00;1.33;;;1.23;;
70683;SDS011;58263;48.146;11.440;2023-03-31T13:24:28;2.22;;;1.05;;
70683;SDS011;58263;48.146;11.440;2023-03-31T13:26:55;1.98;;;0.80;;
70683;SDS011;58263;48.146;11.440;2023-03-31T13:29:44;2.38;;;1.60;;
70683;SDS011;58263;48.146;11.440;2023-03-31T13:50:52;6.38;;;1.90;;
70683;SDS011;58263;48.146;11.440;2023-03-31T14:05:11;2.33;;;1.10;;
70683;SDS011;58263;48.146;11.440;2023-03-31T14:07:19;2.60;;;1.23;;
70683;SDS011;58263;48.146;11.440;2023-03-31T14:09:51;1.98;;;1.10;;
70683;SDS011;58263;48.146;11.440;2023-03-31T14:12:39;3.42;;;1.77;;
70683;SDS011;58263;48.146;11.440;2023-03-31T14:15:04;3.63;;;1.00;;
70683;SDS011;58263;48.146;11.440;2023-03-31T14:17:37;2.67;;;0.95;;
70683;SDS011;58263;48.146;11.440;2023-03-31T14:36:12;2.83;;;1.15;;
70683;SDS011;58263;48.146;11.440;2023-03-31T14:38:46;1.35;;;0.75;;
70683;SDS011;58263;48.146;11.440;2023-03-31T14:41:16;1.48;;;1.25;;
70683;SDS011;58263;48.146;11.440;2023-03-31T14:43:53;2.22;;;0.93;;
70683;SDS011;58263;48.146;11.440;2023-03-31T14:46:21;1.05;;;0.90;;
70683;SDS011;58263;48.146;11.440;2023-03-31T14:48:47;1.08;;;0.60;;
70683;SDS011;58263;48.146;11.440;2023-03-31T14:51:15;0.98;;;0.82;;
70683;SDS011;58263;48.146;11.440;2023-03-31T14:53:57;1.25;;;0.55;;
70683;SDS011;58263;48.146;11.440;2023-03-31T14:56:29;0.75;;;0.50;;
70683;SDS011;58263;48.146;11.440;2023-03-31T14:58:58;1.25;;;1.15;;
70683;SDS011;58263;48.146;11.440;2023-03-31T15:01:27;1.25;;;0.90;;
70683;SDS011;58263;48.146;11.440;2023-03-31T15:03:58;1.45;;;1.00;;
70683;SDS011;58263;48.146;11.440;2023-03-31T15:06:25;1.98;;;1.13;;
70683;SDS011;58263;48.146;11.440;2023-03-31T15:08:51;2.53;;;1.00;;
70683;SDS011;58263;48.146;11.440;2023-03-31T15:11:21;1.60;;;0.80;;
70683;SDS011;58263;48.146;11.440;2023-03-31T15:13:47;2.50;;;1.30;;
70683;SDS011;58263;48.146;11.440;2023-03-31T15:18:57;11.77;;;6.43;;
70683;SDS011;58263;48.146;11.440;2023-03-31T15:21:25;1.83;;;1.00;;
70683;SDS011;58263;48.146;11.440;2023-03-31T15:23:56;2.13;;;1.17;;
70683;SDS011;58263;48.146;11.440;2023-03-31T15:26:23;1.60;;;1.05;;
70683;SDS011;58263;48.146;11.440;2023-03-31T15:28:55;2.50;;;1.02;;
70683;SDS011;58263;48.146;11.440;2023-03-31T15:31:25;2.47;;;1.30;;
70683;SDS011;58263;48.146;11.440;2023-03-31T15:33:51;3.13;;;0.90;;
70683;SDS011;58263;48.146;11.440;2023-03-31T15:36:17;2.63;;;1.05;;
70683;SDS011;58263;48.146;11.440;2023-03-31T15:38:45;3.60;;;1.20;;
70683;SDS011;58263;48.146;11.440;2023-03-31T15:41:11;1.42;;;1.15;;
70683;SDS011;58263;48.146;11.440;2023-03-31T15:43:44;1.20;;;0.60;;
70683;SDS011;58263;48.146;11.440;2023-03-31T15:49:02;2.78;;;1.48;;
70683;SDS011;58263;48.146;11.440;2023-03-31T15:51:32;2.50;;;1.42;;
70683;SDS011;58263;48.146;11.440;2023-03-31T15:54:01;1.65;;;0.80;;
70683;SDS011;58263;48.146;11.440;2023-03-31T15:58:55;1.58;;;0.70;;
70683;SDS011;58263;48.146;11.440;2023-03-31T16:01:23;1.50;;;0.77;;
70683;SDS011;58263;48.146;11.440;2023-03-31T16:03:54;2.38;;;1.00;;
70683;SDS011;58263;48.146;11.440;2023-03-31T16:06:38;1.73;;;0.93;;
70683;SDS011;58263;48.146;11.440;2023-03-31T16:09:07;3.10;;;1.10;;
70683;SDS011;58263;48.146;11.440;2023-03-31T16:11:42;1.70;;;1.27;;
70683;SDS011;58263;48.146;11.440;2023-03-31T16:14:17;3.78;;;1.58;;
70683;SDS011;58263;48.146;11.440;2023-03-31T16:16:59;4.85;;;1.50;;
70683;SDS011;58263;48.146;11.440;2023-03-31T16:19:29;1.55;;;1.20;;
70683;SDS011;58263;48.146;11.440;2023-03-31T16:22:02;4.03;;;1.33;;
70683;SDS011;58263;48.146;11.440;2023-03-31T16:24:32;3.47;;;1.45;;
70683;SDS011;58263;48.146;11.440;2023-03-31T16:27:03;3.28;;;1.25;;
70683;SDS011;58263;48.146;11.440;2023-03-31T16:29:32;4.20;;;1.67;;
70683;SDS011;58263;48.146;11.440;2023-03-31T16:32:06;4.32;;;1.73;;
70683;SDS011;58263;48.146;11.440;2023-03-31T16:34:49;9.32;;;2.50;;
70683;SDS011;58263;48.146;11.440;2023-03-31T16:37:16;2.42;;;1.63;;
70683;SDS011;58263;48.146;11.440;2023-03-31T16:39:41;3.30;;;1.47;;
70683;SDS011;58263;48.146;11.440;2023-03-31T16:42:06;3.20;;;1.90;;
70683;SDS011;58263;48.146;11.440;2023-03-31T16:44:32;3.43;;;1.83;;
70683;SDS011;58263;48.146;11.440;2023-03-31T16:46:57;1.73;;;1.30;;
70683;SDS011;58263;48.146;11.440;2023-03-31T16:49:23;1.98;;;1.33;;
70683;SDS011;58263;48.146;11.440;2023-03-31T16:51:48;1.08;;;0.70;;
70683;SDS011;58263;48.146;11.440;2023-03-31T16:54:13;1.30;;;0.60;;
70683;SDS011;58263;48.146;11.440;2023-03-31T16:56:38;0.40;;;0.40;;
70683;SDS011;58263;48.146;11.440;2023-03-31T16:59:04;1.08;;;0.50;;
70683;SDS011;58263;48.146;11.440;2023-03-31T17:01:32;0.45;;;0.45;;
70683;SDS011;58263;48.146;11.440;2023-03-31T17:03:57;1.37;;;0.87;;
70683;SDS011;58263;48.146;11.440;2023-03-31T17:06:22;1.13;;;0.40;;
70683;SDS011;58263;48.146;11.440;2023-03-31T17:08:48;3.95;;;0.57;;
70683;SDS011;58263;48.146;11.440;2023-03-31T17:11:13;0.63;;;0.63;;
70683;SDS011;58263;48.146;11.440;2023-03-31T17:13:39;0.85;;;0.38;;
70683;SDS011;58263;48.146;11.440;2023-03-31T17:16:06;1.02;;;0.43;;
70683;SDS011;58263;48.146;11.440;2023-03-31T17:18:32;0.40;;;0.40;;
70683;SDS011;58263;48.146;11.440;2023-03-31T17:21:02;0.75;;;0.63;;
70683;SDS011;58263;48.146;11.440;2023-03-31T17:23:34;0.95;;;0.60;;
70683;SDS011;58263;48.146;11.440;2023-03-31T17:26:01;4.55;;;0.50;;
70683;SDS011;58263;48.146;11.440;2023-03-31T17:28:26;0.55;;;0.55;;
70683;SDS011;58263;48.146;11.440;2023-03-31T17:30:52;2.10;;;1.02;;
70683;SDS011;58263;48.146;11.440;2023-03-31T17:33:19;3.53;;;1.27;;
70683;SDS011;58263;48.146;11.440;2023-03-31T17:35:45;0.85;;;0.68;;
70683;SDS011;58263;48.146;11.440;2023-03-31T17:38:10;4.53;;;1.10;;
70683;SDS011;58263;48.146;11.440;2023-03-31T17:40:38;1.55;;;0.77;;
70683;SDS011;58263;48.146;11.440;2023-03-31T17:43:04;3.63;;;0.60;;
70683;SDS011;58263;48.146;11.440;2023-03-31T17:45:30;1.60;;;0.60;;
70683;SDS011;58263;48.146;11.440;2023-03-31T17:47:57;1.40;;;0.70;;
70683;SDS011;58263;48.146;11.440;2023-03-31T17:50:23;0.60;;;0.60;;
70683;SDS011;58263;48.146;11.440;2023-03-31T17:52:49;0.75;;;0.52;;
70683;SDS011;58263;48.146;11.440;2023-03-31T17:55:15;1.50;;;0.55;;
70683;SDS011;58263;48.146;11.440;2023-03-31T17:57:41;2.28;;;0.77;;